createdAt,value
2023-06-25T00:01:44.755Z,4.60
2023-06-25T00:04:48.223Z,4.00
2023-06-25T00:07:51.776Z,4.07
2023-06-25T00:10:55.358Z,4.50
2023-06-25T00:13:58.825Z,5.60
2023-06-25T00:17:02.216Z,4.22
2023-06-25T00:20:06.571Z,4.63
2023-06-25T00:23:10.080Z,4.38
2023-06-25T00:26:16.437Z,5.13
2023-06-25T00:29:19.887Z,5.40
2023-06-25T00:32:26.153Z,4.45
2023-06-25T00:35:31.038Z,4.25
2023-06-25T00:38:36.083Z,4.45
2023-06-25T00:41:42.669Z,4.93
2023-06-25T00:44:46.134Z,4.68
2023-06-25T00:47:49.774Z,4.47
2023-06-25T00:50:53.257Z,6.80
2023-06-25T00:53:56.854Z,6.60
2023-06-25T00:57:03.357Z,5.65
2023-06-25T01:00:07.628Z,6.45
2023-06-25T01:03:26.085Z,5.65
2023-06-25T01:06:42.536Z,4.93
2023-06-25T01:09:50.058Z,7.03
2023-06-25T01:12:54.173Z,6.78
2023-06-25T01:15:57.630Z,5.00
2023-06-25T01:19:05.844Z,5.80
2023-06-25T01:22:10.209Z,6.65
2023-06-25T01:25:13.765Z,7.18
2023-06-25T01:28:22.357Z,7.18
2023-06-25T01:31:27.455Z,7.03
2023-06-25T01:34:30.905Z,6.60
2023-06-25T01:37:34.534Z,6.97
2023-06-25T01:40:38.551Z,7.10
2023-06-25T01:43:44.709Z,7.07
2023-06-25T01:49:51.564Z,6.68
2023-06-25T01:52:55.315Z,8.23
2023-06-25T01:55:58.762Z,6.95
2023-06-25T01:59:02.379Z,7.22
2023-06-25T02:02:06.052Z,5.97
2023-06-25T02:05:10.024Z,5.88
2023-06-25T02:08:13.776Z,6.05
2023-06-25T02:11:17.355Z,7.50
2023-06-25T02:14:21.937Z,6.10
2023-06-25T02:17:25.535Z,6.43
2023-06-25T02:20:29.155Z,6.70
2023-06-25T02:23:32.711Z,7.55
2023-06-25T02:26:36.760Z,5.85
2023-06-25T02:29:40.300Z,6.55
2023-06-25T02:32:44.059Z,5.50
2023-06-25T02:35:47.667Z,6.35
2023-06-25T02:38:51.277Z,5.10
2023-06-25T02:41:55.261Z,6.53
2023-06-25T02:44:58.761Z,6.88
2023-06-25T02:48:02.360Z,6.28
2023-06-25T02:51:06.177Z,5.72
2023-06-25T02:54:09.865Z,5.70
2023-06-25T02:57:13.466Z,6.68
2023-06-25T03:00:17.391Z,6.75
2023-06-25T03:03:21.116Z,7.18
2023-06-25T03:06:24.694Z,6.43
2023-06-25T03:09:28.386Z,7.13
2023-06-25T03:12:33.164Z,6.47
2023-06-25T03:15:36.948Z,6.97
2023-06-25T03:18:41.446Z,7.55
2023-06-25T03:21:45.026Z,7.32
2023-06-25T03:24:51.957Z,7.38
2023-06-25T03:27:58.661Z,5.72
2023-06-25T03:31:05.745Z,6.82
2023-06-25T03:34:18.935Z,6.82
2023-06-25T03:37:23.255Z,6.70
2023-06-25T03:40:27.642Z,7.85
2023-06-25T03:43:33.881Z,6.35
2023-06-25T03:46:37.582Z,7.75
2023-06-25T03:49:43.962Z,6.65
2023-06-25T03:52:58.977Z,7.97
2023-06-25T03:56:02.648Z,7.05
2023-06-25T03:59:06.091Z,7.20
2023-06-25T04:02:10.223Z,7.25
2023-06-25T04:05:13.742Z,6.30
2023-06-25T04:08:17.425Z,5.78
2023-06-25T04:11:22.152Z,6.07
2023-06-25T04:14:26.447Z,6.32
2023-06-25T04:17:30.155Z,6.00
2023-06-25T04:20:33.712Z,7.20
2023-06-25T04:23:37.713Z,7.65
2023-06-25T04:26:43.401Z,7.68
2023-06-25T04:32:51.671Z,8.15
2023-06-25T04:35:58.373Z,6.93
2023-06-25T04:39:02.488Z,6.15
2023-06-25T04:42:08.837Z,6.57
2023-06-25T04:45:12.587Z,7.38
2023-06-25T04:48:16.165Z,6.53
2023-06-25T04:51:19.720Z,6.10
2023-06-25T04:54:23.170Z,6.20
2023-06-25T04:57:26.814Z,6.00
2023-06-25T05:00:30.269Z,5.90
2023-06-25T05:03:33.871Z,5.78
2023-06-25T05:06:37.457Z,5.32
2023-06-25T05:09:40.898Z,5.35
2023-06-25T05:12:44.373Z,5.70
2023-06-25T05:15:48.932Z,5.72
2023-06-25T05:18:53.046Z,5.63
2023-06-25T05:21:56.622Z,6.05
2023-06-25T05:25:00.164Z,5.60
2023-06-25T05:28:04.407Z,5.80
2023-06-25T05:31:09.442Z,6.15
2023-06-25T05:34:12.892Z,5.60
2023-06-25T05:37:16.497Z,5.53
2023-06-25T05:40:20.354Z,6.63
2023-06-25T05:43:23.963Z,4.78
2023-06-25T05:46:27.672Z,5.47
2023-06-25T05:49:31.244Z,5.90
2023-06-25T05:52:34.874Z,6.10
2023-06-25T05:55:38.544Z,6.28
2023-06-25T05:58:42.159Z,4.90
2023-06-25T06:01:45.659Z,5.30
2023-06-25T06:04:49.163Z,5.07
2023-06-25T06:07:52.498Z,5.65
2023-06-25T06:10:56.414Z,4.20
2023-06-25T06:13:59.909Z,5.28
2023-06-25T06:17:03.339Z,5.72
2023-06-25T06:20:07.701Z,5.63
2023-06-25T06:23:11.249Z,6.57
2023-06-25T06:26:14.893Z,11.30
2023-06-25T06:29:19.655Z,5.57
2023-06-25T06:32:23.079Z,5.70
2023-06-25T06:35:26.664Z,5.53
2023-06-25T06:38:30.251Z,7.65
2023-06-25T06:41:33.587Z,5.35
2023-06-25T06:44:38.177Z,4.80
2023-06-25T06:47:41.664Z,5.25
2023-06-25T06:50:45.145Z,5.25
2023-06-25T06:53:48.682Z,5.32
2023-06-25T06:56:52.160Z,4.88
2023-06-25T06:59:57.968Z,5.78
2023-06-25T07:03:03.970Z,5.75
2023-06-25T07:06:10.522Z,5.22
2023-06-25T07:09:13.917Z,5.13
2023-06-25T07:12:17.418Z,5.10
2023-06-25T07:15:21.926Z,5.35
2023-06-25T07:18:25.445Z,6.45
2023-06-25T07:21:28.937Z,5.07
2023-06-25T07:24:32.410Z,5.15
2023-06-25T07:27:36.139Z,5.40
2023-06-25T07:30:40.890Z,5.72
2023-06-25T07:33:44.263Z,4.93
2023-06-25T07:36:48.093Z,5.03
2023-06-25T07:39:51.555Z,5.85
2023-06-25T07:42:55.086Z,4.93
2023-06-25T07:45:58.588Z,4.93
2023-06-25T07:49:02.332Z,4.63
2023-06-25T07:52:06.212Z,4.95
2023-06-25T07:55:09.835Z,6.82
2023-06-25T07:58:13.615Z,6.13
2023-06-25T08:01:17.046Z,5.32
2023-06-25T08:04:29.153Z,4.43
2023-06-25T08:07:34.469Z,5.10
2023-06-25T08:10:38.392Z,4.60
2023-06-25T08:13:41.971Z,6.13
2023-06-25T08:16:45.627Z,5.00
2023-06-25T08:19:49.183Z,5.05
2023-06-25T08:22:52.822Z,5.03
2023-06-25T08:25:57.465Z,5.28
2023-06-25T08:29:00.946Z,5.97
2023-06-25T08:32:04.855Z,5.22
2023-06-25T08:35:09.039Z,5.53
2023-06-25T08:38:13.532Z,6.10
2023-06-25T08:41:17.137Z,6.13
2023-06-25T08:44:20.865Z,5.20
2023-06-25T08:47:27.346Z,5.15
2023-06-25T08:50:32.668Z,5.10
2023-06-25T08:53:38.038Z,5.75
2023-06-25T08:56:42.091Z,4.75
2023-06-25T08:59:45.898Z,5.18
2023-06-25T09:02:49.690Z,5.80
2023-06-25T09:05:57.916Z,6.05
2023-06-25T09:09:03.644Z,4.97
2023-06-25T09:12:07.801Z,4.95
2023-06-25T09:15:11.669Z,5.20
2023-06-25T09:18:15.312Z,4.80
2023-06-25T09:21:18.820Z,4.80
2023-06-25T09:24:24.246Z,6.05
2023-06-25T09:27:28.600Z,5.50
2023-06-25T09:30:36.035Z,5.13
2023-06-25T09:33:41.958Z,5.35
2023-06-25T09:36:46.632Z,5.78
2023-06-25T09:39:50.343Z,5.57
2023-06-25T09:42:58.799Z,5.15
2023-06-25T09:46:03.768Z,5.53
2023-06-25T09:49:08.447Z,5.13
2023-06-25T09:52:16.901Z,5.85
2023-06-25T09:55:22.945Z,4.82
2023-06-25T09:58:29.142Z,5.20
2023-06-25T10:04:37.461Z,6.55
2023-06-25T10:07:47.533Z,4.90
2023-06-25T10:11:02.046Z,5.03
2023-06-25T10:14:06.684Z,5.13
2023-06-25T10:17:10.825Z,5.55
2023-06-25T10:20:14.440Z,4.70
2023-06-25T10:23:28.747Z,5.47
2023-06-25T10:26:37.275Z,6.30
2023-06-25T10:29:44.034Z,5.00
2023-06-25T10:32:47.684Z,5.43
2023-06-25T10:36:00.264Z,5.28
2023-06-25T10:39:05.532Z,5.63
2023-06-25T10:42:10.364Z,5.00
2023-06-25T10:45:13.980Z,4.97
2023-06-25T10:48:17.511Z,4.28
2023-06-25T10:51:24.142Z,4.22
2023-06-25T10:54:28.119Z,4.68
2023-06-25T10:57:33.544Z,4.47
2023-06-25T11:00:37.841Z,4.22
2023-06-25T11:03:42.973Z,4.63
2023-06-25T11:06:46.691Z,4.70
2023-06-25T11:10:01.800Z,4.50
2023-06-25T11:13:06.050Z,4.10
2023-06-25T11:16:09.395Z,4.28
2023-06-25T11:19:12.698Z,4.80
2023-06-25T11:22:16.429Z,12.02
2023-06-25T11:25:23.920Z,18.42
2023-06-25T11:28:27.380Z,26.10
2023-06-25T11:31:30.836Z,8.00
2023-06-25T11:34:34.807Z,5.05
2023-06-25T11:37:49.117Z,7.70
2023-06-25T11:40:55.009Z,4.57
2023-06-25T11:43:58.425Z,5.05
2023-06-25T11:47:01.934Z,4.72
2023-06-25T11:50:05.630Z,4.70
2023-06-25T11:53:09.806Z,4.03
2023-06-25T11:56:13.602Z,5.25
2023-06-25T11:59:17.364Z,4.43
2023-06-25T12:02:21.027Z,6.47
2023-06-25T12:05:24.639Z,11.18
2023-06-25T12:08:28.150Z,17.05
2023-06-25T12:11:32.664Z,14.82
2023-06-25T12:14:36.023Z,17.65
2023-06-25T12:17:39.474Z,10.13
2023-06-25T12:20:45.852Z,5.90
2023-06-25T12:23:54.230Z,5.28
2023-06-25T12:26:57.659Z,5.70
2023-06-25T12:30:04.011Z,4.95
2023-06-25T12:33:09.584Z,5.65
2023-06-25T12:36:14.256Z,5.40
2023-06-25T12:39:17.782Z,6.65
2023-06-25T12:42:24.100Z,7.07
2023-06-25T12:45:28.100Z,12.23
2023-06-25T12:48:31.535Z,8.80
2023-06-25T12:51:34.981Z,7.45
2023-06-25T12:55:10.402Z,5.93
2023-06-25T12:58:16.168Z,6.07
2023-06-25T13:01:19.639Z,5.28
2023-06-25T13:04:26.089Z,5.13
2023-06-25T13:07:54.217Z,5.93
2023-06-25T13:11:00.344Z,6.63
2023-06-25T13:14:06.767Z,5.65
2023-06-25T13:20:20.724Z,5.40
2023-06-25T13:23:27.554Z,6.03
2023-06-25T13:29:56.115Z,5.78
2023-06-25T13:32:59.629Z,5.30
2023-06-25T13:36:06.262Z,5.40
2023-06-25T13:39:09.708Z,5.78
2023-06-25T13:42:38.432Z,5.68
2023-06-25T13:45:42.739Z,5.20
2023-06-25T13:48:46.313Z,5.88
2023-06-25T13:51:49.787Z,5.32
2023-06-25T13:54:53.363Z,5.22
2023-06-25T13:57:59.990Z,5.60
2023-06-25T14:01:03.638Z,5.47
2023-06-25T14:04:07.158Z,5.53
2023-06-25T14:07:13.312Z,5.32
2023-06-25T14:10:16.810Z,5.47
2023-06-25T14:13:22.061Z,5.65
2023-06-25T14:16:31.873Z,5.35
2023-06-25T14:19:35.277Z,5.45
2023-06-25T14:22:38.653Z,5.95
2023-06-25T14:25:42.204Z,6.13
2023-06-25T14:28:46.064Z,5.95
2023-06-25T14:31:50.789Z,5.82
2023-06-25T14:34:54.246Z,6.57
2023-06-25T14:37:57.724Z,6.10
2023-06-25T14:41:01.128Z,6.00
2023-06-25T14:44:05.041Z,5.80
2023-06-25T14:47:11.794Z,6.20
2023-06-25T14:50:15.214Z,7.90
2023-06-25T14:53:18.628Z,8.50
2023-06-25T14:56:22.100Z,9.13
2023-06-25T14:59:25.723Z,9.80
2023-06-25T15:02:29.252Z,9.85
2023-06-25T15:05:32.767Z,9.77
2023-06-25T15:08:36.169Z,10.40
2023-06-25T15:11:39.530Z,8.20
2023-06-25T15:14:45.368Z,8.15
2023-06-25T15:17:49.438Z,8.10
2023-06-25T15:20:52.951Z,7.97
2023-06-25T15:23:56.445Z,7.65
2023-06-25T15:27:00.025Z,7.78
2023-06-25T15:30:04.069Z,7.90
2023-06-25T15:33:07.578Z,7.43
2023-06-25T15:36:11.180Z,7.80
2023-06-25T15:39:14.741Z,7.40
2023-06-25T15:42:20.084Z,8.00
2023-06-25T15:45:23.693Z,9.45
2023-06-25T15:48:27.196Z,7.75
2023-06-25T15:51:32.622Z,7.70
2023-06-25T15:54:36.022Z,7.82
2023-06-25T15:57:39.529Z,7.93
2023-06-25T16:00:43.693Z,6.93
2023-06-25T16:03:47.441Z,6.85
2023-06-25T16:06:53.296Z,6.82
2023-06-25T16:09:56.671Z,7.93
2023-06-25T16:13:00.240Z,7.07
2023-06-25T16:16:03.639Z,6.72
2023-06-25T16:19:39.405Z,7.18
2023-06-25T16:22:30.541Z,7.15
2023-06-25T16:25:34.090Z,7.35
2023-06-25T16:28:40.929Z,8.00
2023-06-25T16:31:44.454Z,7.75
2023-06-25T16:34:47.993Z,7.38
2023-06-25T16:37:52.302Z,8.43
2023-06-25T16:40:56.604Z,8.30
2023-06-25T16:44:00.119Z,8.23
2023-06-25T16:47:03.987Z,8.60
2023-06-25T16:50:09.186Z,8.20
2023-06-25T16:53:13.220Z,7.72
2023-06-25T16:56:17.775Z,7.88
2023-06-25T16:59:21.351Z,8.52
2023-06-25T17:02:24.901Z,8.13
2023-06-25T17:05:29.714Z,7.93
2023-06-25T17:08:33.141Z,7.53
2023-06-25T17:11:36.951Z,8.20
2023-06-25T17:14:41.889Z,7.18
2023-06-25T17:17:45.505Z,7.28
2023-06-25T17:20:49.014Z,7.38
2023-06-25T17:23:52.511Z,7.30
2023-06-25T17:26:57.170Z,7.63
2023-06-25T17:30:00.590Z,7.30
2023-06-25T17:33:04.235Z,7.05
2023-06-25T17:36:08.376Z,7.53
2023-06-25T17:39:11.833Z,7.38
2023-06-25T17:42:15.435Z,7.03
2023-06-25T17:45:21.152Z,6.82
2023-06-25T17:48:26.336Z,7.13
2023-06-25T17:51:29.938Z,6.63
2023-06-25T17:54:33.356Z,7.22
2023-06-25T17:57:36.787Z,6.45
2023-06-25T18:00:40.388Z,6.50
2023-06-25T18:03:43.977Z,6.90
2023-06-25T18:06:49.333Z,6.65
2023-06-25T18:09:52.781Z,7.60
2023-06-25T18:12:56.951Z,7.47
2023-06-25T18:16:00.383Z,7.85
2023-06-25T18:19:06.060Z,7.32
2023-06-25T18:22:09.556Z,8.18
2023-06-25T18:25:13.097Z,6.97
2023-06-25T18:28:16.503Z,6.95
2023-06-25T18:31:19.986Z,6.50
2023-06-25T18:34:23.434Z,7.72
2023-06-25T18:37:27.174Z,6.63
2023-06-25T18:40:30.639Z,6.40
2023-06-25T18:43:35.541Z,6.80
2023-06-25T18:46:40.896Z,6.75
2023-06-25T18:49:44.324Z,6.28
2023-06-25T18:52:48.001Z,6.25
2023-06-25T18:55:51.746Z,6.72
2023-06-25T18:58:55.280Z,7.00
2023-06-25T19:01:59.970Z,7.00
2023-06-25T19:05:03.728Z,6.60
2023-06-25T19:08:07.389Z,6.80
2023-06-25T19:11:11.264Z,7.07
2023-06-25T19:14:14.849Z,6.93
2023-06-25T19:17:19.141Z,7.13
2023-06-25T19:20:24.986Z,6.53
2023-06-25T19:23:30.318Z,6.20
2023-06-25T19:26:34.597Z,7.10
2023-06-25T19:29:39.377Z,6.82
2023-06-25T19:32:42.908Z,7.55
2023-06-25T19:35:46.510Z,6.82
2023-06-25T19:38:52.925Z,7.05
2023-06-25T19:41:57.312Z,7.35
2023-06-25T19:45:01.530Z,7.25
2023-06-25T19:48:05.194Z,7.03
2023-06-25T19:51:08.743Z,7.43
2023-06-25T19:54:13.525Z,6.95
2023-06-25T19:57:17.075Z,6.95
2023-06-25T20:00:20.627Z,7.55
2023-06-25T20:03:24.131Z,7.13
2023-06-25T20:06:28.627Z,6.60
2023-06-25T20:09:32.951Z,6.90
2023-06-25T20:12:36.484Z,7.15
2023-06-25T20:15:39.918Z,7.30
2023-06-25T20:18:43.507Z,7.20
2023-06-25T20:21:46.941Z,6.35
2023-06-25T20:24:50.878Z,7.32
2023-06-25T20:27:54.977Z,6.47
2023-06-25T20:30:58.888Z,6.60
2023-06-25T20:34:02.376Z,6.80
2023-06-25T20:37:06.053Z,6.95
2023-06-25T20:40:10.022Z,7.00
2023-06-25T20:43:13.700Z,6.78
2023-06-25T20:46:18.439Z,6.95
2023-06-25T20:49:21.993Z,6.60
2023-06-25T20:52:25.441Z,7.82
2023-06-25T20:55:30.988Z,6.55
2023-06-25T20:58:34.441Z,7.72
2023-06-25T21:01:37.974Z,7.97
2023-06-25T21:04:41.487Z,7.60
2023-06-25T21:07:44.945Z,7.28
2023-06-25T21:10:48.470Z,7.63
2023-06-25T21:13:51.900Z,7.68
2023-06-25T21:16:55.403Z,7.65
2023-06-25T21:19:58.893Z,9.00
2023-06-25T21:23:02.372Z,8.18
2023-06-25T21:26:05.881Z,8.00
2023-06-25T21:29:09.300Z,7.45
2023-06-25T21:32:12.828Z,7.75
2023-06-25T21:35:16.636Z,8.25
2023-06-25T21:38:20.093Z,8.32
2023-06-25T21:41:23.568Z,7.57
2023-06-25T21:44:27.022Z,7.53
2023-06-25T21:47:30.548Z,8.38
2023-06-25T21:50:34.108Z,7.78
2023-06-25T21:53:37.689Z,7.45
2023-06-25T21:56:45.207Z,8.05
2023-06-25T21:59:48.728Z,8.32
2023-06-25T22:02:52.584Z,8.48
2023-06-25T22:05:56.246Z,8.25
2023-06-25T22:08:59.754Z,8.85
2023-06-25T22:12:03.222Z,8.40
2023-06-25T22:15:07.231Z,8.38
2023-06-25T22:18:10.710Z,8.18
2023-06-25T22:21:14.231Z,9.43
2023-06-25T22:24:17.844Z,10.93
2023-06-25T22:27:21.380Z,10.35
2023-06-25T22:30:24.884Z,10.85
2023-06-25T22:33:28.465Z,9.57
2023-06-25T22:36:32.079Z,11.48
2023-06-25T22:39:35.995Z,11.80
2023-06-25T22:42:39.907Z,10.63
2023-06-25T22:45:43.409Z,10.85
2023-06-25T22:48:48.244Z,12.23
2023-06-25T22:51:53.876Z,11.48
2023-06-25T22:54:57.611Z,10.40
2023-06-25T22:58:01.271Z,14.52
2023-06-25T23:01:06.372Z,12.18
2023-06-25T23:04:10.041Z,12.25
2023-06-25T23:07:19.788Z,12.07
2023-06-25T23:10:23.457Z,12.18
2023-06-25T23:13:27.008Z,12.35
2023-06-25T23:16:30.642Z,12.38
2023-06-25T23:19:35.190Z,12.50
2023-06-25T23:22:39.378Z,12.35
2023-06-25T23:25:51.513Z,11.45
2023-06-25T23:28:56.590Z,13.13
2023-06-25T23:32:01.948Z,16.63
2023-06-25T23:35:05.792Z,16.15
2023-06-25T23:38:09.427Z,17.23
2023-06-25T23:41:13.551Z,17.92
2023-06-25T23:44:17.462Z,14.43
2023-06-25T23:47:21.199Z,14.65
2023-06-25T23:50:25.069Z,13.80
2023-06-25T23:53:30.041Z,13.15
2023-06-25T23:56:35.912Z,11.20
2023-06-25T23:59:40.771Z,10.68
